createdAt,value
2022-11-16T00:00:04.303Z,11.30
2022-11-16T00:02:52.791Z,11.30
2022-11-16T00:05:39.139Z,11.30
2022-11-16T00:08:27.272Z,11.40
2022-11-16T00:11:15.890Z,11.50
2022-11-16T00:14:02.396Z,11.60
2022-11-16T00:16:48.888Z,11.60
2022-11-16T00:19:35.480Z,11.70
2022-11-16T00:22:22.155Z,11.80
2022-11-16T00:25:10.524Z,11.80
2022-11-16T00:27:57.223Z,11.80
2022-11-16T00:30:43.767Z,11.80
2022-11-16T00:33:30.151Z,11.90
2022-11-16T00:36:17.573Z,11.80
2022-11-16T00:39:04.882Z,11.80
2022-11-16T00:41:52.548Z,11.80
2022-11-16T00:44:39.135Z,11.90
2022-11-16T00:47:26.488Z,11.80
2022-11-16T00:50:13.150Z,11.70
2022-11-16T00:53:00.068Z,11.40
2022-11-16T00:55:49.387Z,11.40
2022-11-16T00:58:39.438Z,11.50
2022-11-16T01:01:28.588Z,11.50
2022-11-16T01:04:15.461Z,11.50
2022-11-16T01:07:03.041Z,11.50
2022-11-16T01:09:50.003Z,11.50
2022-11-16T01:12:37.442Z,11.40
2022-11-16T01:15:27.264Z,11.40
2022-11-16T01:18:14.041Z,11.40
2022-11-16T01:21:01.069Z,11.40
2022-11-16T01:23:47.987Z,11.40
2022-11-16T01:26:34.408Z,11.50
2022-11-16T01:29:20.774Z,11.50
2022-11-16T01:32:14.783Z,11.50
2022-11-16T01:35:02.318Z,11.50
2022-11-16T01:37:52.068Z,11.60
2022-11-16T01:40:39.572Z,11.70
2022-11-16T01:43:27.928Z,11.70
2022-11-16T01:46:20.614Z,11.80
2022-11-16T01:49:11.837Z,11.80
2022-11-16T01:52:02.188Z,11.80
2022-11-16T01:54:55.332Z,11.70
2022-11-16T01:57:47.750Z,11.60
2022-11-16T02:00:35.330Z,11.40
2022-11-16T02:03:41.982Z,11.30
2022-11-16T02:06:40.895Z,11.30
2022-11-16T02:09:55.335Z,11.30
2022-11-16T02:13:13.518Z,11.30
2022-11-16T02:16:14.685Z,11.30
2022-11-16T02:19:21.767Z,11.30
2022-11-16T02:22:23.260Z,11.30
2022-11-16T02:25:16.952Z,11.40
2022-11-16T02:28:21.378Z,11.40
2022-11-16T02:31:10.714Z,11.50
2022-11-16T02:33:59.973Z,11.50
2022-11-16T02:36:52.560Z,11.50
2022-11-16T02:39:40.972Z,11.40
2022-11-16T02:42:34.002Z,11.50
2022-11-16T02:45:26.551Z,11.50
2022-11-16T02:48:22.361Z,11.50
2022-11-16T02:51:10.139Z,11.60
2022-11-16T02:54:03.529Z,11.50
2022-11-16T02:56:56.158Z,11.40
2022-11-16T02:59:49.856Z,11.40
2022-11-16T03:02:44.854Z,11.40
2022-11-16T03:05:39.336Z,11.30
2022-11-16T03:08:31.633Z,11.40
2022-11-16T03:11:53.041Z,11.40
2022-11-16T03:14:44.964Z,11.40
2022-11-16T03:17:39.754Z,11.40
2022-11-16T03:20:30.789Z,11.40
2022-11-16T03:23:19.083Z,11.50
2022-11-16T03:26:09.055Z,11.50
2022-11-16T03:29:00.444Z,11.30
2022-11-16T03:31:53.112Z,11.30
2022-11-16T03:34:45.623Z,11.40
2022-11-16T03:37:33.058Z,11.30
2022-11-16T03:40:24.084Z,11.40
2022-11-16T03:43:11.872Z,11.40
2022-11-16T03:46:01.429Z,11.30
2022-11-16T03:48:48.284Z,11.30
2022-11-16T03:51:43.528Z,11.40
2022-11-16T03:54:30.331Z,11.30
2022-11-16T03:57:18.832Z,11.40
2022-11-16T04:00:12.641Z,11.30
2022-11-16T04:03:03.575Z,11.30
2022-11-16T04:06:07.860Z,11.30
2022-11-16T04:09:13.472Z,11.30
2022-11-16T04:12:18.125Z,11.20
2022-11-16T04:15:28.228Z,11.20
2022-11-16T04:18:32.558Z,11.20
2022-11-16T04:21:40.172Z,11.20
2022-11-16T04:24:30.603Z,11.20
2022-11-16T04:27:37.963Z,11.20
2022-11-16T04:30:26.287Z,11.20
2022-11-16T04:33:30.339Z,11.30
2022-11-16T04:36:34.907Z,11.30
2022-11-16T04:39:21.851Z,11.40
2022-11-16T04:42:15.529Z,11.50
2022-11-16T04:45:22.223Z,11.60
2022-11-16T04:48:14.836Z,11.60
2022-11-16T04:51:01.237Z,11.60
2022-11-16T04:53:48.103Z,11.60
2022-11-16T04:56:39.676Z,11.60
2022-11-16T04:59:26.645Z,11.40
2022-11-16T05:02:15.122Z,11.40
2022-11-16T05:05:11.832Z,11.40
2022-11-16T05:08:01.291Z,11.40
2022-11-16T05:10:51.860Z,11.50
2022-11-16T05:13:39.431Z,11.60
2022-11-16T05:16:27.287Z,11.40
2022-11-16T05:19:31.252Z,11.30
2022-11-16T05:22:22.395Z,11.40
2022-11-16T05:25:11.434Z,11.40
2022-11-16T05:27:58.247Z,11.40
2022-11-16T05:30:46.808Z,11.40
2022-11-16T05:33:37.854Z,11.40
2022-11-16T05:36:24.564Z,11.40
2022-11-16T05:39:13.719Z,11.40
2022-11-16T05:42:01.655Z,11.40
2022-11-16T05:44:48.398Z,11.40
2022-11-16T05:47:36.366Z,11.30
2022-11-16T05:50:25.323Z,11.30
2022-11-16T05:53:28.302Z,11.20
2022-11-16T05:56:19.450Z,11.30
2022-11-16T05:59:06.417Z,11.20
2022-11-16T06:01:53.160Z,11.30
2022-11-16T06:04:40.124Z,11.20
2022-11-16T06:07:28.757Z,11.00
2022-11-16T06:10:15.739Z,11.00
2022-11-16T06:13:05.893Z,11.10
2022-11-16T06:15:52.865Z,11.00
2022-11-16T06:18:40.419Z,11.00
2022-11-16T06:21:27.908Z,11.00
2022-11-16T06:24:14.400Z,11.10
2022-11-16T06:27:01.767Z,11.10
2022-11-16T06:29:50.194Z,11.10
2022-11-16T06:32:37.050Z,11.10
2022-11-16T06:35:25.611Z,11.20
2022-11-16T06:38:18.321Z,11.20
2022-11-16T06:41:07.294Z,11.20
2022-11-16T06:44:00.235Z,11.30
2022-11-16T06:46:53.681Z,11.20
2022-11-16T06:49:40.252Z,11.20
2022-11-16T06:52:35.745Z,11.30
2022-11-16T06:55:25.975Z,11.20
2022-11-16T06:58:12.687Z,11.30
2022-11-16T07:01:06.753Z,11.20
2022-11-16T07:03:54.842Z,11.20
2022-11-16T07:06:41.968Z,11.30
2022-11-16T07:09:29.146Z,11.20
2022-11-16T07:12:16.019Z,11.20
2022-11-16T07:15:03.526Z,11.30
2022-11-16T07:17:51.983Z,11.30
2022-11-16T07:20:40.268Z,11.40
2022-11-16T07:23:30.952Z,11.40
2022-11-16T07:26:19.122Z,11.50
2022-11-16T07:29:15.633Z,11.60
2022-11-16T07:32:19.328Z,11.70
2022-11-16T07:35:22.924Z,11.70
2022-11-16T07:38:15.399Z,11.70
2022-11-16T07:41:06.813Z,11.70
2022-11-16T07:43:57.503Z,11.70
2022-11-16T07:46:50.870Z,11.80
2022-11-16T07:49:37.249Z,11.90
2022-11-16T07:52:29.080Z,12.00
2022-11-16T07:55:19.005Z,12.10
2022-11-16T07:58:08.556Z,12.40
2022-11-16T08:00:55.709Z,12.70
2022-11-16T08:03:43.810Z,12.90
2022-11-16T08:06:32.171Z,13.00
2022-11-16T08:09:18.861Z,12.90
2022-11-16T08:12:07.563Z,12.70
2022-11-16T08:14:54.442Z,12.50
2022-11-16T08:17:41.359Z,12.30
2022-11-16T08:20:31.319Z,12.30
2022-11-16T08:23:18.080Z,12.40
2022-11-16T08:26:06.592Z,12.40
2022-11-16T08:28:57.019Z,12.50
2022-11-16T08:31:48.968Z,12.60
2022-11-16T08:34:38.867Z,12.60
2022-11-16T08:37:28.042Z,12.70
2022-11-16T08:40:15.568Z,12.70
2022-11-16T08:43:02.775Z,12.80
2022-11-16T08:45:51.344Z,12.70
2022-11-16T08:48:39.772Z,12.80
2022-11-16T08:51:27.636Z,12.90
2022-11-16T08:54:21.308Z,12.90
2022-11-16T08:57:08.455Z,12.90
2022-11-16T08:59:57.356Z,12.80
2022-11-16T09:02:45.188Z,12.80
2022-11-16T09:05:31.728Z,12.80
2022-11-16T09:08:18.580Z,12.90
2022-11-16T09:11:05.580Z,13.10
2022-11-16T09:13:54.463Z,13.40
2022-11-16T09:16:40.895Z,13.50
2022-11-16T09:19:28.693Z,13.60
2022-11-16T09:22:15.215Z,13.60
2022-11-16T09:25:01.533Z,13.60
2022-11-16T09:27:48.201Z,13.40
2022-11-16T09:30:35.888Z,13.60
2022-11-16T09:33:22.751Z,13.90
2022-11-16T09:36:11.134Z,14.00
2022-11-16T09:42:18.433Z,14.00
2022-11-16T09:45:08.429Z,14.00
2022-11-16T09:47:58.934Z,13.90
2022-11-16T09:50:50.579Z,13.80
2022-11-16T09:53:43.192Z,13.70
2022-11-16T09:56:33.297Z,13.70
2022-11-16T09:59:24.653Z,13.60
2022-11-16T10:02:21.872Z,13.50
2022-11-16T10:05:17.693Z,13.60
2022-11-16T10:08:11.731Z,13.70
2022-11-16T10:11:10.866Z,13.80
2022-11-16T10:14:04.542Z,13.80
2022-11-16T10:16:54.871Z,14.00
2022-11-16T10:19:48.104Z,14.10
2022-11-16T10:22:46.686Z,14.10
2022-11-16T10:25:40.182Z,14.30
2022-11-16T10:28:48.531Z,14.30
2022-11-16T10:31:51.415Z,14.40
2022-11-16T10:34:46.616Z,14.30
2022-11-16T10:37:36.802Z,14.20
2022-11-16T10:40:27.459Z,14.00
2022-11-16T10:43:15.993Z,14.00
2022-11-16T10:46:13.671Z,14.10
2022-11-16T10:49:08.696Z,14.20
2022-11-16T10:51:55.470Z,14.20
2022-11-16T10:54:44.386Z,14.30
2022-11-16T10:57:55.464Z,14.30
2022-11-16T11:00:47.118Z,14.30
2022-11-16T11:03:35.608Z,14.40
2022-11-16T11:06:25.843Z,14.40
2022-11-16T11:09:28.722Z,14.40
2022-11-16T11:12:36.548Z,14.30
2022-11-16T11:15:26.813Z,14.40
2022-11-16T11:18:25.807Z,14.50
2022-11-16T11:21:19.607Z,14.50
2022-11-16T11:24:42.249Z,14.70
2022-11-16T11:27:13.565Z,14.70
2022-11-16T11:30:01.220Z,14.50
2022-11-16T11:32:48.599Z,14.50
2022-11-16T11:35:35.661Z,14.40
2022-11-16T11:38:23.445Z,14.50
2022-11-16T11:41:20.003Z,14.50
2022-11-16T11:44:14.977Z,14.50
2022-11-16T11:50:27.951Z,14.30
2022-11-16T11:53:26.175Z,14.50
2022-11-16T11:56:14.748Z,14.40
2022-11-16T11:59:01.950Z,14.30
2022-11-16T12:02:12.145Z,14.40
2022-11-16T12:05:24.173Z,14.50
2022-11-16T12:08:34.033Z,14.50
2022-11-16T12:11:29.662Z,14.50
2022-11-16T12:14:31.095Z,14.80
2022-11-16T12:17:25.899Z,15.00
2022-11-16T12:20:30.830Z,15.30
2022-11-16T12:23:39.940Z,15.30
2022-11-16T12:26:36.857Z,15.10
2022-11-16T12:29:27.875Z,14.70
2022-11-16T12:32:30.671Z,14.50
2022-11-16T12:35:31.784Z,14.60
2022-11-16T12:38:30.284Z,15.00
2022-11-16T12:41:54.824Z,15.40
2022-11-16T12:44:51.666Z,15.50
2022-11-16T12:47:49.464Z,15.40
2022-11-16T12:50:50.975Z,15.20
2022-11-16T12:53:55.226Z,15.10
2022-11-16T12:56:48.961Z,15.20
2022-11-16T12:59:53.828Z,15.40
2022-11-16T13:03:19.068Z,15.70
2022-11-16T13:06:09.890Z,15.90
2022-11-16T13:09:02.693Z,15.90
2022-11-16T13:11:53.571Z,15.90
2022-11-16T13:14:42.964Z,15.80
2022-11-16T13:17:32.800Z,15.60
2022-11-16T13:20:34.102Z,15.30
2022-11-16T13:23:32.852Z,15.10
2022-11-16T13:26:25.458Z,14.90
2022-11-16T13:29:30.299Z,14.70
2022-11-16T13:32:23.446Z,14.70
2022-11-16T13:35:15.761Z,14.70
2022-11-16T13:38:02.507Z,14.60
2022-11-16T13:40:49.163Z,14.50
2022-11-16T13:43:35.589Z,14.50
2022-11-16T13:46:54.144Z,14.50
2022-11-16T13:49:34.841Z,14.40
2022-11-16T13:52:25.027Z,14.40
2022-11-16T13:55:31.271Z,14.40
2022-11-16T13:58:22.669Z,14.40
2022-11-16T14:01:11.180Z,14.30
2022-11-16T14:04:50.787Z,14.20
2022-11-16T14:07:42.798Z,14.10
2022-11-16T14:11:00.890Z,14.10
2022-11-16T14:13:48.120Z,14.00
2022-11-16T14:16:55.669Z,14.00
2022-11-16T14:19:56.194Z,14.00
2022-11-16T14:23:01.316Z,14.10
2022-11-16T14:25:52.356Z,14.10
2022-11-16T14:28:55.164Z,14.20
2022-11-16T14:31:50.923Z,14.30
2022-11-16T14:34:43.267Z,14.30
2022-11-16T14:37:34.368Z,14.30
2022-11-16T14:40:21.407Z,14.20
2022-11-16T14:43:17.414Z,14.00
2022-11-16T14:46:07.116Z,14.10
2022-11-16T14:48:56.613Z,14.10
2022-11-16T14:51:46.416Z,14.20
2022-11-16T14:54:39.169Z,14.10
2022-11-16T14:57:25.923Z,14.10
2022-11-16T15:00:20.445Z,14.00
2022-11-16T15:03:11.085Z,14.00
2022-11-16T15:05:59.391Z,13.90
2022-11-16T15:08:49.904Z,13.90
2022-11-16T15:12:02.129Z,13.90
2022-11-16T15:14:52.695Z,13.80
2022-11-16T15:17:40.781Z,13.60
2022-11-16T15:20:28.549Z,13.60
2022-11-16T15:23:16.443Z,13.60
2022-11-16T15:26:04.579Z,13.60
2022-11-16T15:28:52.716Z,13.60
2022-11-16T15:31:43.074Z,13.60
2022-11-16T15:34:29.819Z,13.60
2022-11-16T15:37:28.135Z,13.50
2022-11-16T15:40:14.987Z,13.40
2022-11-16T15:43:04.637Z,13.50
2022-11-16T15:45:53.206Z,13.40
2022-11-16T15:48:40.454Z,13.40
2022-11-16T15:51:32.111Z,13.20
2022-11-16T15:54:24.800Z,13.00
2022-11-16T15:57:13.912Z,12.60
2022-11-16T16:00:00.680Z,12.60
2022-11-16T16:02:48.608Z,12.50
2022-11-16T16:05:40.821Z,12.20
2022-11-16T16:08:31.175Z,11.70
2022-11-16T16:11:28.901Z,11.30
2022-11-16T16:14:26.784Z,11.20
2022-11-16T16:17:23.370Z,11.10
2022-11-16T16:20:19.578Z,11.10
2022-11-16T16:23:08.519Z,10.90
2022-11-16T16:25:54.963Z,11.00
2022-11-16T16:28:41.798Z,10.70
2022-11-16T16:31:28.759Z,10.80
2022-11-16T16:34:17.764Z,10.70
2022-11-16T16:37:05.755Z,10.70
2022-11-16T16:39:52.153Z,10.70
2022-11-16T16:42:39.066Z,10.60
2022-11-16T16:45:31.796Z,10.70
2022-11-16T16:48:18.770Z,10.70
2022-11-16T16:51:05.260Z,10.70
2022-11-16T16:53:53.376Z,10.80
2022-11-16T16:56:40.172Z,10.80
2022-11-16T16:59:26.843Z,10.90
2022-11-16T17:02:13.563Z,10.90
2022-11-16T17:05:02.078Z,11.00
2022-11-16T17:07:49.050Z,11.20
2022-11-16T17:10:38.438Z,11.20
2022-11-16T17:13:24.994Z,11.30
2022-11-16T17:16:11.971Z,11.30
2022-11-16T17:18:58.538Z,11.30
2022-11-16T17:21:45.267Z,11.40
2022-11-16T17:24:32.188Z,11.50
2022-11-16T17:27:20.030Z,11.60
2022-11-16T17:30:10.524Z,11.70
2022-11-16T17:32:57.310Z,11.80
2022-11-16T17:35:43.676Z,11.90
2022-11-16T17:38:30.957Z,12.00
2022-11-16T17:41:19.628Z,12.00
2022-11-16T17:44:08.580Z,12.00
2022-11-16T17:46:55.052Z,12.00
2022-11-16T17:49:41.452Z,12.00
2022-11-16T17:52:28.025Z,12.00
2022-11-16T17:55:15.143Z,12.00
2022-11-16T17:58:01.677Z,12.00
2022-11-16T18:00:50.623Z,12.00
2022-11-16T18:03:37.895Z,11.90
2022-11-16T18:06:26.000Z,11.90
2022-11-16T18:09:12.628Z,11.90
2022-11-16T18:11:59.220Z,11.90
2022-11-16T18:15:06.444Z,11.90
2022-11-16T18:17:53.774Z,12.00
2022-11-16T18:20:40.372Z,11.90
2022-11-16T18:23:27.227Z,11.90
2022-11-16T18:26:18.637Z,11.90
2022-11-16T18:29:05.294Z,11.80
2022-11-16T18:31:51.881Z,11.80
2022-11-16T18:34:39.654Z,11.70
2022-11-16T18:37:26.176Z,11.70
2022-11-16T18:40:14.025Z,11.70
2022-11-16T18:43:00.349Z,11.80
2022-11-16T18:45:46.776Z,11.70
2022-11-16T18:48:33.655Z,11.70
2022-11-16T18:51:23.176Z,11.70
2022-11-16T18:54:10.301Z,11.70
2022-11-16T18:56:57.027Z,11.80
2022-11-16T18:59:43.605Z,11.80
2022-11-16T19:02:29.850Z,11.80
2022-11-16T19:05:16.378Z,11.80
2022-11-16T19:08:04.333Z,11.80
2022-11-16T19:10:50.733Z,11.80
2022-11-16T19:13:37.615Z,11.80
2022-11-16T19:16:25.162Z,11.70
2022-11-16T19:19:11.629Z,11.60
2022-11-16T19:21:58.316Z,11.60
2022-11-16T19:24:46.106Z,11.60
2022-11-16T19:27:32.745Z,11.70
2022-11-16T19:30:19.710Z,11.60
2022-11-16T19:33:06.613Z,11.80
2022-11-16T19:35:53.032Z,11.80
2022-11-16T19:38:40.125Z,11.70
2022-11-16T19:41:29.488Z,11.60
2022-11-16T19:44:15.776Z,11.60
2022-11-16T19:47:02.193Z,11.50
2022-11-16T19:49:50.056Z,11.40
2022-11-16T19:52:36.652Z,11.40
2022-11-16T19:55:24.937Z,11.40
2022-11-16T19:58:12.961Z,11.30
2022-11-16T20:01:03.937Z,11.30
2022-11-16T20:03:50.854Z,11.20
2022-11-16T20:06:40.507Z,11.20
2022-11-16T20:09:27.249Z,11.20
2022-11-16T20:12:13.890Z,11.30
2022-11-16T20:15:02.860Z,11.30
2022-11-16T20:17:49.575Z,11.40
2022-11-16T20:20:36.030Z,11.40
2022-11-16T20:23:22.517Z,11.40
2022-11-16T20:26:11.356Z,11.40
2022-11-16T20:28:58.760Z,11.30
2022-11-16T20:31:47.309Z,11.30
2022-11-16T20:34:34.191Z,11.30
2022-11-16T20:37:20.594Z,11.30
2022-11-16T20:40:08.094Z,11.30
2022-11-16T20:42:58.953Z,11.30
2022-11-16T20:45:45.684Z,11.40
2022-11-16T20:48:33.416Z,11.40
2022-11-16T20:51:21.069Z,11.40
2022-11-16T20:54:07.767Z,11.40
2022-11-16T20:56:54.169Z,11.40
2022-11-16T20:59:40.753Z,11.40
2022-11-16T21:02:27.762Z,11.40
2022-11-16T21:05:15.507Z,11.40
2022-11-16T21:08:01.952Z,11.40
2022-11-16T21:10:48.641Z,11.40
2022-11-16T21:13:52.750Z,11.40
2022-11-16T21:16:39.342Z,11.40
2022-11-16T21:19:25.919Z,11.30
2022-11-16T21:22:13.694Z,11.30
2022-11-16T21:25:00.671Z,11.30
2022-11-16T21:27:47.241Z,11.30
2022-11-16T21:30:34.033Z,11.20
2022-11-16T21:33:20.378Z,11.20
2022-11-16T21:36:08.867Z,11.20
2022-11-16T21:38:57.999Z,11.20
2022-11-16T21:41:44.723Z,11.30
2022-11-16T21:44:41.771Z,11.30
2022-11-16T21:47:29.122Z,11.20
2022-11-16T21:50:31.093Z,11.20
2022-11-16T21:53:17.794Z,11.20
2022-11-16T21:56:07.326Z,11.10
2022-11-16T21:58:55.055Z,11.10
2022-11-16T22:01:55.367Z,11.20
2022-11-16T22:04:59.461Z,11.10
2022-11-16T22:07:46.092Z,11.20
2022-11-16T22:10:32.361Z,11.10
2022-11-16T22:13:20.572Z,11.10
2022-11-16T22:16:08.661Z,11.00
2022-11-16T22:18:55.030Z,11.00
2022-11-16T22:21:41.462Z,11.10
2022-11-16T22:24:27.784Z,11.10
2022-11-16T22:27:15.538Z,11.10
2022-11-16T22:30:03.667Z,11.10
2022-11-16T22:32:50.035Z,11.20
2022-11-16T22:35:38.238Z,11.20
2022-11-16T22:38:25.444Z,11.20
2022-11-16T22:41:11.839Z,11.20
2022-11-16T22:43:58.282Z,11.20
2022-11-16T22:46:46.046Z,11.20
2022-11-16T22:49:32.447Z,11.20
2022-11-16T22:52:18.738Z,11.20
2022-11-16T22:55:05.681Z,11.20
2022-11-16T22:57:52.405Z,11.30
2022-11-16T23:00:42.005Z,11.20
2022-11-16T23:03:30.869Z,11.30
2022-11-16T23:06:18.300Z,11.30
2022-11-16T23:09:04.828Z,11.30
2022-11-16T23:12:08.867Z,11.30
2022-11-16T23:15:12.784Z,11.30
2022-11-16T23:17:59.388Z,11.30
2022-11-16T23:21:06.128Z,11.30
2022-11-16T23:24:06.727Z,11.30
2022-11-16T23:27:10.833Z,11.30
2022-11-16T23:29:57.929Z,11.30
2022-11-16T23:32:44.261Z,11.20
2022-11-16T23:35:30.628Z,11.10
2022-11-16T23:38:18.240Z,11.10
2022-11-16T23:41:24.674Z,11.00
2022-11-16T23:44:10.402Z,11.00
2022-11-16T23:46:56.760Z,11.00
2022-11-16T23:49:43.287Z,11.00
2022-11-16T23:52:29.848Z,11.00
2022-11-16T23:55:17.777Z,11.00
2022-11-16T23:58:04.141Z,11.00
